Time;durP1;ratioP1;P1;durP2;ratioP2;P2;SDS_P1;SDS_P2;PMS_P1;PMS_P2;Temp;Humidity;BMP_temperature;BMP_pressure;BME280_temperature;BME280_humidity;BME280_pressure;Samples;Min_cycle;Max_cycle;Signal;HPM_P1;HPM_P2
2022/07/02 00:01:57;;;;;;;5.65;3.83;;;;;;;;;;4998713;28;20552;-85
2022/07/02 00:04:26;;;;;;;5.90;4.00;;;;;;;;;;5005420;28;20473;-85
2022/07/02 00:06:52;;;;;;;5.00;3.63;;;;;;;;;;5007574;28;20056;-85
2022/07/02 00:09:17;;;;;;;5.53;3.63;;;;;;;;;;5007024;28;20030;-85
2022/07/02 00:11:42;;;;;;;6.50;3.50;;;;;;;;;;4990913;28;20092;-85
2022/07/02 00:14:08;;;;;;;6.50;3.97;;;;;;;;;;4991447;28;20045;-84
2022/07/02 00:16:37;;;;;;;5.20;3.70;;;;;;;;;;4990059;28;20033;-85
2022/07/02 00:19:02;;;;;;;5.97;3.92;;;;;;;;;;4990436;28;20608;-85
2022/07/02 00:21:27;;;;;;;6.35;4.20;;;;;;;;;;4990603;28;20164;-85
2022/07/02 00:23:56;;;;;;;5.30;3.83;;;;;;;;;;4989805;28;20056;-85
2022/07/02 00:26:29;;;;;;;5.38;3.75;;;;;;;;;;5021646;28;20034;-84
2022/07/02 00:29:04;;;;;;;5.40;3.75;;;;;;;;;;5005889;28;20026;-85
2022/07/02 00:31:29;;;;;;;6.15;4.32;;;;;;;;;;4989545;28;20038;-85
2022/07/02 00:33:56;;;;;;;6.20;4.55;;;;;;;;;;4989843;28;20571;-85
2022/07/02 00:36:22;;;;;;;7.03;4.80;;;;;;;;;;5010764;28;20046;-84
2022/07/02 00:38:50;;;;;;;7.80;4.47;;;;;;;;;;4987328;28;20034;-85
2022/07/02 00:41:17;;;;;;;6.60;4.18;;;;;;;;;;5006298;28;20089;-85
2022/07/02 00:43:43;;;;;;;5.97;4.40;;;;;;;;;;5000550;28;20033;-85
2022/07/02 00:46:09;;;;;;;6.30;4.40;;;;;;;;;;4989596;28;20042;-85
2022/07/02 00:48:35;;;;;;;6.32;4.70;;;;;;;;;;5000616;28;20513;-85
2022/07/02 00:51:00;;;;;;;7.63;4.35;;;;;;;;;;4980283;28;20026;-84
2022/07/02 00:53:25;;;;;;;5.90;4.40;;;;;;;;;;5001136;28;20433;-85
2022/07/02 00:55:57;;;;;;;6.05;4.40;;;;;;;;;;5007384;28;20049;-85
2022/07/02 00:58:23;;;;;;;6.28;4.53;;;;;;;;;;4989881;28;21106;-85
2022/07/02 01:00:49;;;;;;;8.55;4.78;;;;;;;;;;4991414;28;20096;-85
2022/07/02 01:03:17;;;;;;;6.22;4.57;;;;;;;;;;5006150;28;20393;-85
2022/07/02 01:05:43;;;;;;;6.90;4.82;;;;;;;;;;5005915;28;20026;-84
2022/07/02 01:10:53;;;;;;;6.32;4.55;;;;;;;;;;5000196;28;20500;-85
2022/07/02 01:13:20;;;;;;;6.80;4.43;;;;;;;;;;5005111;28;20045;-84
2022/07/02 01:15:45;;;;;;;6.38;4.70;;;;;;;;;;4988791;28;20060;-85
2022/07/02 01:18:17;;;;;;;6.68;4.60;;;;;;;;;;5006061;28;20033;-85
2022/07/02 01:20:45;;;;;;;6.60;4.57;;;;;;;;;;4989791;28;20030;-85
2022/07/02 01:23:11;;;;;;;7.10;4.57;;;;;;;;;;4988589;28;20077;-84
2022/07/02 01:25:36;;;;;;;7.28;5.40;;;;;;;;;;5005415;28;20061;-85
2022/07/02 01:28:02;;;;;;;6.35;4.35;;;;;;;;;;5005349;28;20073;-85
2022/07/02 01:30:27;;;;;;;6.97;5.10;;;;;;;;;;5005623;28;20046;-85
2022/07/02 01:32:53;;;;;;;7.32;5.18;;;;;;;;;;4988196;28;20448;-85
2022/07/02 01:35:18;;;;;;;7.57;4.53;;;;;;;;;;4999927;28;20124;-84
2022/07/02 01:37:44;;;;;;;6.80;4.97;;;;;;;;;;4989631;28;20085;-85
2022/07/02 01:40:10;;;;;;;7.82;5.13;;;;;;;;;;4983054;28;20112;-85
2022/07/02 01:42:36;;;;;;;7.10;4.63;;;;;;;;;;4988872;28;20072;-85
2022/07/02 01:45:01;;;;;;;6.82;4.70;;;;;;;;;;5001216;28;20474;-84
2022/07/02 01:47:27;;;;;;;8.88;4.72;;;;;;;;;;4983670;28;20087;-85
2022/07/02 01:49:52;;;;;;;8.25;5.20;;;;;;;;;;5004984;28;20049;-85
2022/07/02 01:52:18;;;;;;;9.88;5.30;;;;;;;;;;4988286;28;20036;-85
2022/07/02 01:54:43;;;;;;;7.20;4.90;;;;;;;;;;4990839;28;20456;-85
2022/07/02 01:57:09;;;;;;;8.23;5.45;;;;;;;;;;4991681;28;20079;-85
2022/07/02 01:59:34;;;;;;;7.70;5.28;;;;;;;;;;5004973;28;20509;-85
2022/07/02 02:02:01;;;;;;;7.88;5.38;;;;;;;;;;4985890;28;20121;-85
2022/07/02 02:04:26;;;;;;;8.13;5.47;;;;;;;;;;4988262;28;20600;-85
2022/07/02 02:06:52;;;;;;;7.60;5.45;;;;;;;;;;4990390;28;20033;-85
2022/07/02 02:09:17;;;;;;;6.82;4.88;;;;;;;;;;4988827;28;20621;-85
2022/07/02 02:11:43;;;;;;;7.30;4.88;;;;;;;;;;4986683;28;20033;-85
2022/07/02 02:14:08;;;;;;;8.23;5.28;;;;;;;;;;5004765;28;20030;-85
2022/07/02 02:16:34;;;;;;;9.02;6.13;;;;;;;;;;4989567;28;20101;-85
2022/07/02 02:19:00;;;;;;;9.02;5.57;;;;;;;;;;4989300;28;20389;-85
2022/07/02 02:21:26;;;;;;;7.50;5.45;;;;;;;;;;5004711;28;20034;-85
2022/07/02 02:23:52;;;;;;;7.60;5.32;;;;;;;;;;4978961;28;21045;-85
2022/07/02 02:26:17;;;;;;;7.70;5.38;;;;;;;;;;4983346;28;20100;-85
2022/07/02 02:28:42;;;;;;;7.68;5.35;;;;;;;;;;5005794;28;20497;-85
2022/07/02 02:31:08;;;;;;;8.35;5.15;;;;;;;;;;4989377;28;20117;-85
2022/07/02 02:33:33;;;;;;;9.30;5.45;;;;;;;;;;5005490;28;20041;-85
2022/07/02 02:35:59;;;;;;;8.82;5.70;;;;;;;;;;4993890;28;20091;-84
2022/07/02 02:38:24;;;;;;;7.43;5.25;;;;;;;;;;5005369;28;20030;-85
2022/07/02 02:40:50;;;;;;;7.38;5.45;;;;;;;;;;4980707;28;20514;-85
2022/07/02 02:43:15;;;;;;;9.27;5.65;;;;;;;;;;4986457;28;20033;-86
2022/07/02 02:45:43;;;;;;;7.50;5.55;;;;;;;;;;5006110;28;20052;-85
2022/07/02 02:48:08;;;;;;;8.90;5.57;;;;;;;;;;5004892;28;20038;-85
2022/07/02 02:50:34;;;;;;;9.07;5.93;;;;;;;;;;5003694;28;20105;-85
2022/07/02 02:52:59;;;;;;;7.78;5.35;;;;;;;;;;4988917;28;20038;-85
2022/07/02 02:55:25;;;;;;;8.85;6.07;;;;;;;;;;4987112;28;20038;-86
2022/07/02 02:57:50;;;;;;;9.82;6.10;;;;;;;;;;4988000;28;20041;-85
2022/07/02 03:00:15;;;;;;;11.27;5.80;;;;;;;;;;4987131;28;20033;-85
2022/07/02 03:02:41;;;;;;;10.52;6.90;;;;;;;;;;4994298;28;20116;-85
2022/07/02 03:05:06;;;;;;;7.80;5.75;;;;;;;;;;4987102;28;20100;-85
2022/07/02 03:07:32;;;;;;;8.38;6.30;;;;;;;;;;5002973;28;20045;-85
2022/07/02 03:09:57;;;;;;;10.10;6.40;;;;;;;;;;4998021;28;20029;-85
2022/07/02 03:12:22;;;;;;;8.48;5.88;;;;;;;;;;4990338;28;20041;-84
2022/07/02 03:14:48;;;;;;;10.23;6.45;;;;;;;;;;4996409;28;20128;-85
2022/07/02 03:17:13;;;;;;;8.90;5.97;;;;;;;;;;4991225;28;20072;-85
2022/07/02 03:19:39;;;;;;;8.52;5.78;;;;;;;;;;4992636;28;20393;-85
2022/07/02 03:22:04;;;;;;;7.75;5.55;;;;;;;;;;4995762;28;20089;-85
2022/07/02 03:24:29;;;;;;;9.27;5.95;;;;;;;;;;4990839;28;20124;-85
2022/07/02 03:26:55;;;;;;;10.52;6.55;;;;;;;;;;4974891;28;20061;-85
2022/07/02 03:29:20;;;;;;;8.73;6.00;;;;;;;;;;4981018;28;24526;-84
2022/07/02 03:31:45;;;;;;;9.20;5.90;;;;;;;;;;4990990;28;20516;-84
2022/07/02 03:34:11;;;;;;;8.82;6.15;;;;;;;;;;4975074;28;20063;-84
2022/07/02 03:36:36;;;;;;;9.27;6.07;;;;;;;;;;4975548;28;20117;-84
2022/07/02 03:39:02;;;;;;;8.18;5.72;;;;;;;;;;4990322;28;20115;-84
2022/07/02 03:41:27;;;;;;;9.68;5.82;;;;;;;;;;4990783;28;20041;-85
2022/07/02 03:43:52;;;;;;;8.73;6.05;;;;;;;;;;4968850;28;20069;-84
2022/07/02 03:46:18;;;;;;;8.70;5.90;;;;;;;;;;4977432;28;20034;-84
2022/07/02 03:48:44;;;;;;;8.15;5.78;;;;;;;;;;4979679;28;20046;-84
2022/07/02 03:51:09;;;;;;;8.93;5.60;;;;;;;;;;4971968;28;20037;-85
2022/07/02 03:53:34;;;;;;;9.80;6.47;;;;;;;;;;4974756;28;20584;-85
2022/07/02 03:56:01;;;;;;;8.88;6.13;;;;;;;;;;4975342;28;20123;-85
2022/07/02 03:58:27;;;;;;;9.75;6.32;;;;;;;;;;4975725;28;20034;-85
2022/07/02 04:00:52;;;;;;;10.35;7.13;;;;;;;;;;4977903;28;20037;-85
2022/07/02 04:03:17;;;;;;;9.95;6.13;;;;;;;;;;4974964;28;20087;-85
2022/07/02 04:05:42;;;;;;;8.30;5.63;;;;;;;;;;4983807;28;20033;-85
2022/07/02 04:08:08;;;;;;;10.68;7.18;;;;;;;;;;4976852;28;20030;-84
2022/07/02 04:10:34;;;;;;;9.43;6.43;;;;;;;;;;4985084;28;20068;-84
2022/07/02 04:12:59;;;;;;;8.60;5.80;;;;;;;;;;4976007;28;20403;-84
2022/07/02 04:15:25;;;;;;;8.68;5.72;;;;;;;;;;5007982;28;20038;-85
2022/07/02 04:17:50;;;;;;;9.43;5.82;;;;;;;;;;4974692;28;20038;-85
2022/07/02 04:20:16;;;;;;;8.80;5.43;;;;;;;;;;4976413;28;20121;-84
2022/07/02 04:22:41;;;;;;;7.50;5.22;;;;;;;;;;4974544;28;20079;-85
2022/07/02 04:25:07;;;;;;;8.88;5.82;;;;;;;;;;4980794;28;20067;-85
2022/07/02 04:27:33;;;;;;;9.10;5.60;;;;;;;;;;4973599;28;20041;-84
2022/07/02 04:29:58;;;;;;;7.70;4.60;;;;;;;;;;4973305;28;20041;-85
2022/07/02 04:32:23;;;;;;;7.72;4.90;;;;;;;;;;4981443;28;20041;-85
2022/07/02 04:34:48;;;;;;;11.38;4.95;;;;;;;;;;4974149;28;20042;-85
2022/07/02 04:37:17;;;;;;;8.25;5.47;;;;;;;;;;4990204;28;20029;-85
2022/07/02 04:39:42;;;;;;;7.55;4.85;;;;;;;;;;4974467;28;20401;-85
2022/07/02 04:42:08;;;;;;;6.68;4.53;;;;;;;;;;4990978;28;20037;-85
2022/07/02 04:44:36;;;;;;;7.65;4.88;;;;;;;;;;4985210;28;20401;-85
2022/07/02 04:47:01;;;;;;;6.88;4.53;;;;;;;;;;4975385;28;20113;-84
2022/07/02 04:49:26;;;;;;;8.30;4.95;;;;;;;;;;4984565;28;20184;-84
2022/07/02 04:51:52;;;;;;;7.15;4.78;;;;;;;;;;4973252;28;20042;-85
2022/07/02 04:54:17;;;;;;;6.88;4.78;;;;;;;;;;4972564;28;20120;-85
2022/07/02 04:56:43;;;;;;;7.57;4.45;;;;;;;;;;4983171;28;20091;-85
2022/07/02 04:59:08;;;;;;;6.75;4.55;;;;;;;;;;4966275;28;20038;-84
2022/07/02 05:01:34;;;;;;;7.22;4.97;;;;;;;;;;4973015;28;20432;-84
2022/07/02 05:03:59;;;;;;;6.50;4.32;;;;;;;;;;4973410;28;20148;-85
2022/07/02 05:06:24;;;;;;;6.72;4.65;;;;;;;;;;4972702;28;20088;-84
2022/07/02 05:08:51;;;;;;;5.75;3.85;;;;;;;;;;4979291;28;20148;-85
2022/07/02 05:11:19;;;;;;;7.13;4.45;;;;;;;;;;4969716;28;20044;-84
2022/07/02 05:13:44;;;;;;;5.88;3.88;;;;;;;;;;4973245;28;20070;-85
2022/07/02 05:16:11;;;;;;;6.03;4.03;;;;;;;;;;4988636;28;20076;-85
2022/07/02 05:18:36;;;;;;;6.00;3.90;;;;;;;;;;4978766;28;20038;-85
2022/07/02 05:21:01;;;;;;;6.30;3.60;;;;;;;;;;4988011;28;20378;-85
2022/07/02 05:23:27;;;;;;;5.63;3.78;;;;;;;;;;4994724;28;20072;-85
2022/07/02 05:25:52;;;;;;;6.10;3.67;;;;;;;;;;4988589;28;20612;-84
2022/07/02 05:28:18;;;;;;;5.53;3.67;;;;;;;;;;4998777;28;20046;-85
2022/07/02 05:30:44;;;;;;;5.78;3.50;;;;;;;;;;4988506;28;20064;-85
2022/07/02 05:33:09;;;;;;;5.18;3.00;;;;;;;;;;4988315;28;20057;-85
2022/07/02 05:35:35;;;;;;;5.25;3.42;;;;;;;;;;4988579;28;20038;-84
2022/07/02 05:38:00;;;;;;;5.40;3.58;;;;;;;;;;5005855;28;20451;-85
2022/07/02 05:40:25;;;;;;;5.68;3.47;;;;;;;;;;4990835;28;20164;-85
2022/07/02 05:42:51;;;;;;;5.90;3.50;;;;;;;;;;5005534;28;20211;-85
2022/07/02 05:45:16;;;;;;;5.57;3.53;;;;;;;;;;4995134;28;20125;-85
2022/07/02 05:47:42;;;;;;;4.32;2.95;;;;;;;;;;5005605;28;20113;-85
2022/07/02 05:50:08;;;;;;;4.78;3.00;;;;;;;;;;5004278;28;20034;-85
2022/07/02 05:52:33;;;;;;;4.78;3.10;;;;;;;;;;4989065;28;20034;-84
2022/07/02 05:54:59;;;;;;;4.95;3.22;;;;;;;;;;4983705;28;20117;-85
2022/07/02 05:57:24;;;;;;;4.05;2.97;;;;;;;;;;4997525;28;20040;-86
2022/07/02 05:59:49;;;;;;;4.30;3.10;;;;;;;;;;5005112;28;20042;-86
2022/07/02 06:02:15;;;;;;;4.78;3.05;;;;;;;;;;4987768;28;20513;-86
2022/07/02 06:04:40;;;;;;;5.32;3.00;;;;;;;;;;4990647;28;20530;-86
2022/07/02 06:09:49;;;;;;;4.15;2.92;;;;;;;;;;5003753;28;20048;-86
2022/07/02 06:12:15;;;;;;;5.75;3.05;;;;;;;;;;5004091;28;20452;-87
2022/07/02 06:14:40;;;;;;;4.20;2.83;;;;;;;;;;5011253;28;20034;-86
2022/07/02 06:17:06;;;;;;;5.13;2.92;;;;;;;;;;4992474;28;20038;-86
2022/07/02 06:19:31;;;;;;;4.93;2.72;;;;;;;;;;4985512;28;20469;-86
2022/07/02 06:21:56;;;;;;;4.20;2.78;;;;;;;;;;4987488;28;20034;-87
2022/07/02 06:24:22;;;;;;;5.68;2.80;;;;;;;;;;4968360;28;20928;-86
2022/07/02 06:26:47;;;;;;;4.07;2.72;;;;;;;;;;4952839;28;20046;-86
2022/07/02 06:29:12;;;;;;;4.30;2.60;;;;;;;;;;4952652;28;20088;-86
2022/07/02 06:31:39;;;;;;;3.83;2.50;;;;;;;;;;4953985;28;20074;-87
2022/07/02 06:34:04;;;;;;;4.20;2.60;;;;;;;;;;4945077;28;20116;-85
2022/07/02 06:36:30;;;;;;;4.90;2.63;;;;;;;;;;4969201;28;20097;-86
2022/07/02 06:38:55;;;;;;;3.60;2.25;;;;;;;;;;4952841;28;20041;-86
2022/07/02 06:44:05;;;;;;;3.63;2.28;;;;;;;;;;4966258;28;20160;-85
2022/07/02 06:46:31;;;;;;;3.40;2.20;;;;;;;;;;4964723;28;20121;-85
2022/07/02 06:48:57;;;;;;;6.55;2.45;;;;;;;;;;4968678;28;20042;-86
2022/07/02 06:51:22;;;;;;;4.47;2.67;;;;;;;;;;4952308;28;20041;-85
2022/07/02 06:53:48;;;;;;;2.95;1.88;;;;;;;;;;4985446;28;20030;-87
2022/07/02 06:56:13;;;;;;;3.50;2.17;;;;;;;;;;4961628;28;20671;-85
2022/07/02 06:58:38;;;;;;;3.95;2.50;;;;;;;;;;4958628;28;20158;-86
2022/07/02 07:01:04;;;;;;;4.03;2.40;;;;;;;;;;4953746;28;20169;-86
2022/07/02 07:03:29;;;;;;;3.53;1.85;;;;;;;;;;4968754;28;20478;-86
2022/07/02 07:05:54;;;;;;;3.10;1.80;;;;;;;;;;4950456;28;20038;-86
2022/07/02 07:08:20;;;;;;;4.45;2.03;;;;;;;;;;4951583;28;20477;-86
2022/07/02 07:10:45;;;;;;;3.65;1.98;;;;;;;;;;4965603;28;20539;-85
2022/07/02 07:13:10;;;;;;;3.22;1.88;;;;;;;;;;4952434;28;20429;-84
2022/07/02 07:15:36;;;;;;;3.70;2.00;;;;;;;;;;4953846;28;20038;-84
2022/07/02 07:18:01;;;;;;;3.70;1.80;;;;;;;;;;4962323;28;20034;-85
2022/07/02 07:20:29;;;;;;;3.65;2.10;;;;;;;;;;4957959;28;20449;-85
2022/07/02 07:22:55;;;;;;;3.72;1.80;;;;;;;;;;4957534;28;20034;-84
2022/07/02 07:25:20;;;;;;;3.00;1.88;;;;;;;;;;4963245;28;20048;-84
2022/07/02 07:27:45;;;;;;;3.38;2.00;;;;;;;;;;4986713;28;20517;-85
2022/07/02 07:30:12;;;;;;;2.50;1.65;;;;;;;;;;4971084;28;20417;-86
2022/07/02 07:32:38;;;;;;;3.80;1.95;;;;;;;;;;4987461;28;20030;-86
2022/07/02 07:35:04;;;;;;;3.58;1.70;;;;;;;;;;4971323;28;20045;-85
2022/07/02 07:37:29;;;;;;;3.10;1.70;;;;;;;;;;4972317;28;20030;-85
2022/07/02 07:39:54;;;;;;;3.20;1.52;;;;;;;;;;4987801;28;20038;-85
2022/07/02 07:42:22;;;;;;;2.80;1.50;;;;;;;;;;4962387;28;20088;-85
2022/07/02 07:44:47;;;;;;;3.92;1.20;;;;;;;;;;4972710;28;20026;-86
2022/07/02 07:47:13;;;;;;;2.17;1.00;;;;;;;;;;4971004;28;20037;-85
2022/07/02 07:49:38;;;;;;;3.35;1.33;;;;;;;;;;4981378;28;20033;-85
2022/07/02 07:52:04;;;;;;;2.45;1.20;;;;;;;;;;4970452;28;20450;-84
2022/07/02 07:54:29;;;;;;;3.25;1.30;;;;;;;;;;4971479;28;20065;-85
2022/07/02 07:56:55;;;;;;;2.13;1.10;;;;;;;;;;4980143;28;20042;-85
2022/07/02 07:59:20;;;;;;;4.32;1.35;;;;;;;;;;4990229;28;20037;-85
2022/07/02 08:01:45;;;;;;;2.40;1.27;;;;;;;;;;4974211;28;20601;-85
2022/07/02 08:04:11;;;;;;;2.55;1.33;;;;;;;;;;4990822;28;20374;-85
2022/07/02 08:06:36;;;;;;;3.05;1.25;;;;;;;;;;4979106;28;20030;-85
2022/07/02 08:09:01;;;;;;;3.72;0.90;;;;;;;;;;4991085;28;20542;-86
2022/07/02 08:11:27;;;;;;;5.35;1.27;;;;;;;;;;4990423;28;20465;-86
2022/07/02 08:13:53;;;;;;;2.28;0.80;;;;;;;;;;4991148;28;20038;-86
2022/07/02 08:16:18;;;;;;;1.13;0.52;;;;;;;;;;4975079;28;20034;-86
2022/07/02 08:18:43;;;;;;;3.40;1.10;;;;;;;;;;4978333;28;20029;-87
2022/07/02 08:21:09;;;;;;;2.30;0.60;;;;;;;;;;4967453;28;20066;-86
2022/07/02 08:23:34;;;;;;;1.38;0.60;;;;;;;;;;4979324;28;20527;-86
2022/07/02 08:25:59;;;;;;;2.13;0.70;;;;;;;;;;4990615;28;20531;-84
2022/07/02 08:28:25;;;;;;;2.47;0.88;;;;;;;;;;4989410;28;20038;-84
2022/07/02 08:30:51;;;;;;;2.40;0.90;;;;;;;;;;4990940;28;20034;-87
2022/07/02 08:33:18;;;;;;;2.67;1.00;;;;;;;;;;5002086;28;20474;-87
2022/07/02 08:35:44;;;;;;;2.13;0.60;;;;;;;;;;4997191;28;20052;-87
2022/07/02 08:38:09;;;;;;;2.75;0.68;;;;;;;;;;4999891;28;20037;-87
2022/07/02 08:40:35;;;;;;;1.55;0.68;;;;;;;;;;5005232;28;20393;-87
2022/07/02 08:43:03;;;;;;;1.23;0.50;;;;;;;;;;4999727;28;20082;-86
2022/07/02 08:45:30;;;;;;;1.67;0.70;;;;;;;;;;4998152;28;20707;-86
2022/07/02 08:47:56;;;;;;;1.65;0.70;;;;;;;;;;4989897;28;20057;-87
2022/07/02 08:50:22;;;;;;;4.30;0.57;;;;;;;;;;5005387;28;20064;-87
2022/07/02 08:52:50;;;;;;;1.23;0.60;;;;;;;;;;4999289;28;20504;-88
2022/07/02 08:55:17;;;;;;;1.80;0.63;;;;;;;;;;4997366;28;20273;-88
2022/07/02 08:57:43;;;;;;;;;;;;;;;;;;4990361;28;20040;-88
2022/07/02 09:00:08;;;;;;;1.77;0.60;;;;;;;;;;4981710;28;19917;-88
2022/07/02 09:02:35;;;;;;;1.25;0.60;;;;;;;;;;4987201;28;20034;-88
2022/07/02 09:05:03;;;;;;;2.03;0.60;;;;;;;;;;5021896;28;20057;-88
2022/07/02 09:07:28;;;;;;;1.50;0.60;;;;;;;;;;5004365;28;20121;-86
2022/07/02 09:09:54;;;;;;;1.25;0.50;;;;;;;;;;4993609;28;20121;-86
2022/07/02 09:12:23;;;;;;;0.98;0.50;;;;;;;;;;5021400;28;20042;-87
2022/07/02 09:14:48;;;;;;;2.00;0.52;;;;;;;;;;4978900;28;20065;-88
2022/07/02 09:17:14;;;;;;;2.70;0.70;;;;;;;;;;4977029;28;20064;-89
2022/07/02 09:19:39;;;;;;;1.67;0.50;;;;;;;;;;4989987;28;20041;-88
2022/07/02 09:22:06;;;;;;;2.83;0.53;;;;;;;;;;5005278;28;20472;-87
2022/07/02 09:24:42;;;;;;;1.88;0.60;;;;;;;;;;5005923;28;20053;-87
2022/07/02 09:27:15;;;;;;;2.17;0.40;;;;;;;;;;4983770;28;20037;-86
2022/07/02 09:29:54;;;;;;;1.30;0.45;;;;;;;;;;4984818;28;20523;-86
2022/07/02 09:32:20;;;;;;;1.23;0.50;;;;;;;;;;4989433;28;20026;-86
2022/07/02 09:34:48;;;;;;;2.38;0.60;;;;;;;;;;4980661;28;20604;-87
2022/07/02 09:37:15;;;;;;;1.52;0.47;;;;;;;;;;4986755;28;20037;-85
2022/07/02 09:39:43;;;;;;;1.38;0.43;;;;;;;;;;5004885;28;20112;-85
2022/07/02 09:42:09;;;;;;;0.70;0.40;;;;;;;;;;4983385;28;20076;-87
2022/07/02 09:44:34;;;;;;;1.20;0.50;;;;;;;;;;4998303;28;20042;-86
2022/07/02 09:46:59;;;;;;;2.93;1.33;;;;;;;;;;4988249;28;20037;-88
2022/07/02 09:49:25;;;;;;;1.83;0.50;;;;;;;;;;5004603;28;20057;-87
2022/07/02 09:51:52;;;;;;;1.80;0.60;;;;;;;;;;5003929;28;20038;-87
2022/07/02 09:54:22;;;;;;;1.83;0.50;;;;;;;;;;5003515;28;20033;-87
2022/07/02 09:56:54;;;;;;;1.88;0.40;;;;;;;;;;4986996;28;20045;-87
2022/07/02 09:59:20;;;;;;;1.08;0.30;;;;;;;;;;5003446;28;20123;-85
2022/07/02 10:01:46;;;;;;;1.17;0.40;;;;;;;;;;4987377;28;20117;-86
2022/07/02 10:04:12;;;;;;;0.47;0.20;;;;;;;;;;5005438;28;20453;-88
2022/07/02 10:06:37;;;;;;;1.23;0.32;;;;;;;;;;5004374;28;20030;-87
2022/07/02 10:09:03;;;;;;;0.53;0.30;;;;;;;;;;4987547;28;20503;-85
2022/07/02 10:11:29;;;;;;;2.05;0.40;;;;;;;;;;4979961;28;20041;-88
2022/07/02 10:13:55;;;;;;;1.33;0.30;;;;;;;;;;4999127;28;20042;-87
2022/07/02 10:16:22;;;;;;;1.30;0.40;;;;;;;;;;4988832;28;20112;-87
2022/07/02 10:18:48;;;;;;;1.40;0.50;;;;;;;;;;4996458;28;20042;-87
2022/07/02 10:21:15;;;;;;;1.55;0.40;;;;;;;;;;4992324;28;20038;-85
2022/07/02 10:23:43;;;;;;;1.00;0.30;;;;;;;;;;4985650;28;20593;-85
2022/07/02 10:26:13;;;;;;;0.80;0.30;;;;;;;;;;4959668;28;20038;-84
2022/07/02 10:28:38;;;;;;;1.30;0.40;;;;;;;;;;4967411;28;20966;-85
2022/07/02 10:31:06;;;;;;;0.93;0.30;;;;;;;;;;4959243;28;20109;-85
2022/07/02 10:33:37;;;;;;;1.20;0.45;;;;;;;;;;4952655;28;20816;-84
2022/07/02 10:36:03;;;;;;;2.10;0.68;;;;;;;;;;4966007;28;20035;-85
2022/07/02 10:38:34;;;;;;;1.20;0.40;;;;;;;;;;4961258;28;20613;-84
2022/07/02 10:41:00;;;;;;;1.42;0.40;;;;;;;;;;4961514;28;20084;-84
2022/07/02 10:43:29;;;;;;;0.80;0.30;;;;;;;;;;4961379;28;20498;-83
2022/07/02 10:46:08;;;;;;;2.05;0.47;;;;;;;;;;4961901;28;20113;-84
2022/07/02 10:49:00;;;;;;;2.10;0.50;;;;;;;;;;4945641;28;20089;-84
2022/07/02 10:51:33;;;;;;;1.65;0.52;;;;;;;;;;4947539;28;20627;-84
2022/07/02 10:54:00;;;;;;;2.88;0.60;;;;;;;;;;4961229;28;20061;-82
2022/07/02 10:56:27;;;;;;;1.50;0.50;;;;;;;;;;4961789;28;20070;-85
2022/07/02 10:58:53;;;;;;;2.08;0.45;;;;;;;;;;4976246;28;20644;-85
2022/07/02 11:01:23;;;;;;;0.83;0.47;;;;;;;;;;4960045;28;20039;-84
2022/07/02 11:04:02;;;;;;;1.83;0.40;;;;;;;;;;4965231;28;20035;-85
2022/07/02 11:06:32;;;;;;;1.10;0.32;;;;;;;;;;4944125;28;20046;-83
2022/07/02 11:08:58;;;;;;;1.48;0.47;;;;;;;;;;4965941;28;20096;-85
2022/07/02 11:11:32;;;;;;;1.40;0.50;;;;;;;;;;4963771;28;20095;-84
2022/07/02 11:13:57;;;;;;;1.40;0.60;;;;;;;;;;4961819;28;20080;-84
2022/07/02 11:16:27;;;;;;;1.07;0.30;;;;;;;;;;4976767;28;20126;-83
2022/07/02 11:18:54;;;;;;;1.35;0.40;;;;;;;;;;4959713;28;20493;-85
2022/07/02 11:21:22;;;;;;;1.02;0.25;;;;;;;;;;4961982;28;20034;-84
2022/07/02 11:23:47;;;;;;;1.70;0.55;;;;;;;;;;4966216;28;20108;-84
2022/07/02 11:26:20;;;;;;;0.50;0.20;;;;;;;;;;5003820;28;20910;-81
2022/07/02 11:28:46;;;;;;;1.00;0.40;;;;;;;;;;4987880;28;20277;-81
2022/07/02 11:31:12;;;;;;;0.97;0.50;;;;;;;;;;4989774;28;20405;-80
2022/07/02 11:33:51;;;;;;;1.67;0.40;;;;;;;;;;5000441;28;20038;-81
2022/07/02 11:36:17;;;;;;;1.65;0.50;;;;;;;;;;5001812;28;20493;-80
2022/07/02 11:38:45;;;;;;;1.48;0.60;;;;;;;;;;5007056;28;20037;-79
2022/07/02 11:41:26;;;;;;;1.10;0.40;;;;;;;;;;5006823;28;20083;-82
2022/07/02 11:43:54;;;;;;;1.33;0.40;;;;;;;;;;5005868;28;20038;-80
2022/07/02 11:46:22;;;;;;;1.52;0.50;;;;;;;;;;5007309;28;20397;-80
2022/07/02 11:48:48;;;;;;;1.85;0.40;;;;;;;;;;4991165;28;20030;-80
2022/07/02 11:51:14;;;;;;;1.92;0.40;;;;;;;;;;4991090;28;20034;-81
2022/07/02 11:53:40;;;;;;;1.95;0.50;;;;;;;;;;5006687;28;20548;-81
2022/07/02 11:56:10;;;;;;;1.27;0.57;;;;;;;;;;4993378;28;20038;-82
2022/07/02 11:58:38;;;;;;;2.40;0.63;;;;;;;;;;4990771;28;20478;-81
2022/07/02 12:01:03;;;;;;;1.30;0.47;;;;;;;;;;5007876;28;20037;-81
2022/07/02 12:03:29;;;;;;;1.67;0.50;;;;;;;;;;4990977;28;20089;-81
2022/07/02 12:05:54;;;;;;;1.63;0.40;;;;;;;;;;4990918;28;20054;-81
2022/07/02 12:08:20;;;;;;;1.20;0.50;;;;;;;;;;4990707;28;20038;-80
2022/07/02 12:10:45;;;;;;;2.95;0.60;;;;;;;;;;5006347;28;20041;-79
2022/07/02 12:13:11;;;;;;;1.63;0.50;;;;;;;;;;4990946;28;20564;-83
2022/07/02 12:15:44;;;;;;;1.38;0.60;;;;;;;;;;4990626;28;20041;-81
2022/07/02 12:18:20;;;;;;;2.70;0.70;;;;;;;;;;5007544;28;20389;-81
2022/07/02 12:20:46;;;;;;;0.88;0.40;;;;;;;;;;5006456;28;20045;-81
2022/07/02 12:23:11;;;;;;;2.00;0.63;;;;;;;;;;5006740;28;20067;-83
2022/07/02 12:25:44;;;;;;;3.60;0.50;;;;;;;;;;4989938;28;20045;-82
2022/07/02 12:30:54;;;;;;;1.15;0.50;;;;;;;;;;5000576;28;20048;-81
2022/07/02 12:33:35;;;;;;;1.30;0.55;;;;;;;;;;4990661;28;20041;-82
2022/07/02 12:36:01;;;;;;;0.95;0.50;;;;;;;;;;4995065;28;20041;-82
2022/07/02 12:38:27;;;;;;;1.55;0.50;;;;;;;;;;5001293;28;20057;-82
2022/07/02 12:41:01;;;;;;;2.23;0.70;;;;;;;;;;4992459;28;20034;-82
2022/07/02 12:43:27;;;;;;;1.45;0.60;;;;;;;;;;5013301;28;20436;-84
2022/07/02 12:46:03;;;;;;;1.40;0.60;;;;;;;;;;4997357;28;20034;-90
2022/07/02 12:48:29;;;;;;;1.80;0.60;;;;;;;;;;5004385;28;20132;-91
2022/07/02 12:50:54;;;;;;;1.33;0.57;;;;;;;;;;4959256;28;20535;-89
2022/07/02 12:53:41;;;;;;;1.10;0.50;;;;;;;;;;4948549;28;20401;-90
2022/07/02 12:56:10;;;;;;;1.55;0.60;;;;;;;;;;4917730;28;20045;-89
2022/07/02 12:59:08;;;;;;;1.95;0.60;;;;;;;;;;4951786;28;20039;-90
2022/07/02 13:11:36;;;;;;;1.80;0.60;;;;;;;;;;4879620;29;20048;-90
2022/07/02 13:14:39;;;;;;;1.42;0.80;;;;;;;;;;4845492;29;20106;-88
2022/07/02 13:17:37;;;;;;;2.05;0.52;;;;;;;;;;4872800;29;20132;-89
2022/07/02 13:21:08;;;;;;;;;;;;;;;;;;;;;
2022/07/02 13:24:01;;;;;;;1.48;0.50;;;;;;;;;;4931989;28;20430;-89
2022/07/02 13:29:51;;;;;;;2.20;0.50;;;;;;;;;;4810961;29;20064;-88
2022/07/02 13:32:17;;;;;;;1.40;0.50;;;;;;;;;;4809594;29;20043;-88
2022/07/02 13:34:43;;;;;;;1.25;0.63;;;;;;;;;;4866994;29;20040;-87
2022/07/02 13:38:09;;;;;;;;;;;;;;;;;;;;;
2022/07/02 13:40:37;;;;;;;1.10;0.50;;;;;;;;;;4875623;29;20739;-88
2022/07/02 13:43:06;;;;;;;1.42;0.52;;;;;;;;;;4866614;29;20036;-90
2022/07/02 13:46:17;;;;;;;2.80;0.60;;;;;;;;;;4831193;29;20512;-91
2022/07/02 13:49:27;;;;;;;1.30;0.50;;;;;;;;;;4791037;29;20052;-90
2022/07/02 13:52:52;;;;;;;1.20;0.50;;;;;;;;;;4782167;29;20034;-90
2022/07/02 13:55:17;;;;;;;1.48;0.57;;;;;;;;;;4771058;29;20054;-90
2022/07/02 13:57:43;;;;;;;1.25;0.52;;;;;;;;;;4864435;29;20031;-90
2022/07/02 14:00:42;;;;;;;1.33;0.63;;;;;;;;;;4909876;29;20039;-91
2022/07/02 14:03:07;;;;;;;1.13;0.40;;;;;;;;;;4883770;29;20051;-91
2022/07/02 14:06:05;;;;;;;1.50;0.60;;;;;;;;;;4878627;29;20414;-90
2022/07/02 14:16:03;;;;;;;1.08;0.55;;;;;;;;;;4845008;29;20442;-89
2022/07/02 14:19:35;;;;;;;0.95;0.45;;;;;;;;;;4803103;29;20053;-91
2022/07/02 14:22:15;;;;;;;1.35;0.57;;;;;;;;;;4804772;29;20376;-90
2022/07/02 14:24:55;;;;;;;1.20;0.60;;;;;;;;;;4783520;29;20042;-89
2022/07/02 14:41:59;;;;;;;1.10;0.45;;;;;;;;;;4741047;29;20043;-88
2022/07/02 14:44:52;;;;;;;1.20;0.50;;;;;;;;;;4742338;29;20068;-89
2022/07/02 14:47:17;;;;;;;1.17;0.52;;;;;;;;;;4723885;29;20469;-89
2022/07/02 14:49:55;;;;;;;2.58;0.50;;;;;;;;;;4744736;29;20047;-89
2022/07/02 14:52:21;;;;;;;2.15;0.90;;;;;;;;;;4754242;29;20184;-85
2022/07/02 14:55:18;;;;;;;2.15;0.60;;;;;;;;;;4786654;29;20583;-89
2022/07/02 14:58:09;;;;;;;1.15;0.45;;;;;;;;;;4795152;29;20035;-90
2022/07/02 15:00:37;;;;;;;0.95;0.30;;;;;;;;;;4783560;29;20484;-88
2022/07/02 15:03:11;;;;;;;1.08;0.43;;;;;;;;;;4772643;29;20347;-89
2022/07/02 15:05:40;;;;;;;1.52;0.70;;;;;;;;;;4802680;29;20185;-93
2022/07/02 15:08:05;;;;;;;2.13;0.50;;;;;;;;;;4776127;29;20055;-87
2022/07/02 15:18:23;;;;;;;0.98;0.40;;;;;;;;;;4914447;29;20095;-90
2022/07/02 15:21:46;;;;;;;1.40;0.43;;;;;;;;;;4855336;29;20041;-91
2022/07/02 15:24:24;;;;;;;1.83;0.55;;;;;;;;;;4851923;29;20610;-90
2022/07/02 15:27:15;;;;;;;2.25;0.50;;;;;;;;;;4915594;29;20051;-91
2022/07/02 15:29:44;;;;;;;1.85;0.60;;;;;;;;;;4921393;29;20042;-90
2022/07/02 15:32:11;;;;;;;2.20;0.47;;;;;;;;;;4885707;29;20043;-87
2022/07/02 15:34:52;;;;;;;0.75;0.30;;;;;;;;;;4885435;29;20044;-89
2022/07/02 15:37:56;;;;;;;1.13;0.50;;;;;;;;;;4884177;29;20508;-89
2022/07/02 15:40:40;;;;;;;1.35;0.47;;;;;;;;;;4882241;29;20040;-89
2022/07/02 15:50:26;;;;;;;2.10;0.55;;;;;;;;;;4852980;29;20559;-89
2022/07/02 15:53:04;;;;;;;1.42;0.50;;;;;;;;;;4849521;29;20039;-93
2022/07/02 15:55:50;;;;;;;1.63;0.68;;;;;;;;;;4919869;28;20034;-86
2022/07/02 16:08:08;;;;;;;1.30;0.52;;;;;;;;;;4845960;29;20056;-89